sensor_id;sensor_type;location;lat;lon;timestamp;P1;durP1;ratioP1;P2;durP2;ratioP2
23543;SDS011;11950;51.230;4.012;2023-05-28T00:01:10;21.92;;;10.70;;
23543;SDS011;11950;51.230;4.012;2023-05-28T00:03:36;19.33;;;10.52;;
23543;SDS011;11950;51.230;4.012;2023-05-28T00:06:03;16.67;;;10.50;;
23543;SDS011;11950;51.230;4.012;2023-05-28T00:08:30;20.80;;;11.55;;
23543;SDS011;11950;51.230;4.012;2023-05-28T00:10:56;17.25;;;10.63;;
23543;SDS011;11950;51.230;4.012;2023-05-28T00:13:26;20.05;;;10.45;;
23543;SDS011;11950;51.230;4.012;2023-05-28T00:15:55;22.27;;;11.55;;
23543;SDS011;11950;51.230;4.012;2023-05-28T00:18:22;21.17;;;11.00;;
23543;SDS011;11950;51.230;4.012;2023-05-28T00:20:49;25.80;;;11.18;;
23543;SDS011;11950;51.230;4.012;2023-05-28T00:23:16;21.00;;;10.77;;
23543;SDS011;11950;51.230;4.012;2023-05-28T00:25:42;25.65;;;10.68;;
23543;SDS011;11950;51.230;4.012;2023-05-28T00:28:09;17.95;;;10.35;;
23543;SDS011;11950;51.230;4.012;2023-05-28T00:30:35;17.48;;;9.88;;
23543;SDS011;11950;51.230;4.012;2023-05-28T00:33:01;19.85;;;10.02;;
23543;SDS011;11950;51.230;4.012;2023-05-28T00:35:28;21.15;;;10.15;;
23543;SDS011;11950;51.230;4.012;2023-05-28T00:37:54;22.25;;;9.90;;
23543;SDS011;11950;51.230;4.012;2023-05-28T00:40:20;18.85;;;8.77;;
23543;SDS011;11950;51.230;4.012;2023-05-28T00:42:47;20.08;;;8.93;;
23543;SDS011;11950;51.230;4.012;2023-05-28T00:45:14;16.92;;;8.70;;
23543;SDS011;11950;51.230;4.012;2023-05-28T00:47:40;19.00;;;8.57;;
23543;SDS011;11950;51.230;4.012;2023-05-28T00:50:07;19.98;;;9.40;;
23543;SDS011;11950;51.230;4.012;2023-05-28T00:52:35;21.05;;;9.57;;
23543;SDS011;11950;51.230;4.012;2023-05-28T00:55:02;23.08;;;9.20;;
23543;SDS011;11950;51.230;4.012;2023-05-28T00:57:38;25.48;;;9.10;;
23543;SDS011;11950;51.230;4.012;2023-05-28T01:00:05;19.73;;;8.80;;
23543;SDS011;11950;51.230;4.012;2023-05-28T01:02:32;19.60;;;9.20;;
23543;SDS011;11950;51.230;4.012;2023-05-28T01:04:58;22.83;;;9.40;;
23543;SDS011;11950;51.230;4.012;2023-05-28T01:07:24;21.30;;;9.20;;
23543;SDS011;11950;51.230;4.012;2023-05-28T01:09:51;21.30;;;8.75;;
23543;SDS011;11950;51.230;4.012;2023-05-28T01:12:17;22.13;;;9.25;;
23543;SDS011;11950;51.230;4.012;2023-05-28T01:14:44;19.73;;;9.20;;
23543;SDS011;11950;51.230;4.012;2023-05-28T01:17:11;19.77;;;8.35;;
23543;SDS011;11950;51.230;4.012;2023-05-28T01:19:37;21.58;;;8.52;;
23543;SDS011;11950;51.230;4.012;2023-05-28T01:22:04;20.55;;;8.68;;
23543;SDS011;11950;51.230;4.012;2023-05-28T01:24:31;19.52;;;9.43;;
23543;SDS011;11950;51.230;4.012;2023-05-28T01:27:00;17.95;;;8.43;;
23543;SDS011;11950;51.230;4.012;2023-05-28T01:29:27;20.88;;;9.63;;
23543;SDS011;11950;51.230;4.012;2023-05-28T01:31:54;22.17;;;10.02;;
23543;SDS011;11950;51.230;4.012;2023-05-28T01:34:21;21.60;;;10.25;;
23543;SDS011;11950;51.230;4.012;2023-05-28T01:37:00;20.38;;;9.80;;
23543;SDS011;11950;51.230;4.012;2023-05-28T01:39:30;21.50;;;9.85;;
23543;SDS011;11950;51.230;4.012;2023-05-28T01:42:04;21.27;;;9.20;;
23543;SDS011;11950;51.230;4.012;2023-05-28T01:44:32;25.95;;;10.10;;
23543;SDS011;11950;51.230;4.012;2023-05-28T01:46:59;19.10;;;9.55;;
23543;SDS011;11950;51.230;4.012;2023-05-28T01:49:26;23.23;;;9.65;;
23543;SDS011;11950;51.230;4.012;2023-05-28T01:51:55;18.77;;;9.60;;
23543;SDS011;11950;51.230;4.012;2023-05-28T01:54:22;21.33;;;9.77;;
23543;SDS011;11950;51.230;4.012;2023-05-28T01:56:48;23.92;;;9.27;;
23543;SDS011;11950;51.230;4.012;2023-05-28T01:59:14;22.98;;;10.07;;
23543;SDS011;11950;51.230;4.012;2023-05-28T02:01:41;19.73;;;9.60;;
23543;SDS011;11950;51.230;4.012;2023-05-28T02:04:09;24.83;;;11.35;;
23543;SDS011;11950;51.230;4.012;2023-05-28T02:06:36;20.55;;;9.80;;
23543;SDS011;11950;51.230;4.012;2023-05-28T02:09:02;16.95;;;8.85;;
23543;SDS011;11950;51.230;4.012;2023-05-28T02:11:28;23.35;;;10.07;;
23543;SDS011;11950;51.230;4.012;2023-05-28T02:13:56;18.25;;;10.38;;
23543;SDS011;11950;51.230;4.012;2023-05-28T02:16:23;19.25;;;10.02;;
23543;SDS011;11950;51.230;4.012;2023-05-28T02:18:53;15.55;;;8.95;;
23543;SDS011;11950;51.230;4.012;2023-05-28T02:21:21;19.83;;;9.40;;
23543;SDS011;11950;51.230;4.012;2023-05-28T02:23:48;17.08;;;8.57;;
23543;SDS011;11950;51.230;4.012;2023-05-28T02:26:17;21.08;;;9.45;;
23543;SDS011;11950;51.230;4.012;2023-05-28T02:28:43;17.60;;;9.30;;
23543;SDS011;11950;51.230;4.012;2023-05-28T02:31:10;21.05;;;9.90;;
23543;SDS011;11950;51.230;4.012;2023-05-28T02:33:37;20.52;;;10.05;;
23543;SDS011;11950;51.230;4.012;2023-05-28T02:36:04;21.75;;;9.48;;
23543;SDS011;11950;51.230;4.012;2023-05-28T02:38:32;21.13;;;9.43;;
23543;SDS011;11950;51.230;4.012;2023-05-28T02:40:58;22.45;;;9.90;;
23543;SDS011;11950;51.230;4.012;2023-05-28T02:43:24;19.52;;;10.30;;
23543;SDS011;11950;51.230;4.012;2023-05-28T02:45:51;14.98;;;9.10;;
23543;SDS011;11950;51.230;4.012;2023-05-28T02:48:17;18.77;;;10.20;;
23543;SDS011;11950;51.230;4.012;2023-05-28T02:50:43;20.38;;;9.73;;
23543;SDS011;11950;51.230;4.012;2023-05-28T02:53:30;17.92;;;9.63;;
23543;SDS011;11950;51.230;4.012;2023-05-28T02:55:59;16.48;;;8.90;;
23543;SDS011;11950;51.230;4.012;2023-05-28T02:58:26;21.90;;;9.57;;
23543;SDS011;11950;51.230;4.012;2023-05-28T03:00:54;18.08;;;10.10;;
23543;SDS011;11950;51.230;4.012;2023-05-28T03:03:22;18.40;;;9.32;;
23543;SDS011;11950;51.230;4.012;2023-05-28T03:05:48;24.05;;;9.48;;
23543;SDS011;11950;51.230;4.012;2023-05-28T03:08:17;21.15;;;10.10;;
23543;SDS011;11950;51.230;4.012;2023-05-28T03:10:43;18.58;;;9.48;;
23543;SDS011;11950;51.230;4.012;2023-05-28T03:13:09;22.63;;;9.80;;
23543;SDS011;11950;51.230;4.012;2023-05-28T03:15:36;21.23;;;9.88;;
23543;SDS011;11950;51.230;4.012;2023-05-28T03:18:02;17.17;;;9.85;;
23543;SDS011;11950;51.230;4.012;2023-05-28T03:20:34;20.77;;;9.32;;
23543;SDS011;11950;51.230;4.012;2023-05-28T03:23:00;13.98;;;8.90;;
23543;SDS011;11950;51.230;4.012;2023-05-28T03:25:28;21.98;;;9.35;;
23543;SDS011;11950;51.230;4.012;2023-05-28T03:27:54;18.02;;;8.65;;
23543;SDS011;11950;51.230;4.012;2023-05-28T03:30:28;17.65;;;9.10;;
23543;SDS011;11950;51.230;4.012;2023-05-28T03:32:55;18.70;;;10.02;;
23543;SDS011;11950;51.230;4.012;2023-05-28T03:35:21;15.93;;;8.80;;
23543;SDS011;11950;51.230;4.012;2023-05-28T03:37:48;17.85;;;8.57;;
23543;SDS011;11950;51.230;4.012;2023-05-28T03:40:15;19.80;;;9.38;;
23543;SDS011;11950;51.230;4.012;2023-05-28T03:42:41;13.63;;;8.60;;
23543;SDS011;11950;51.230;4.012;2023-05-28T03:45:08;19.30;;;8.43;;
23543;SDS011;11950;51.230;4.012;2023-05-28T03:47:34;20.10;;;9.63;;
23543;SDS011;11950;51.230;4.012;2023-05-28T03:50:01;23.05;;;9.27;;
23543;SDS011;11950;51.230;4.012;2023-05-28T03:52:30;18.70;;;9.10;;
23543;SDS011;11950;51.230;4.012;2023-05-28T03:54:56;18.48;;;9.50;;
23543;SDS011;11950;51.230;4.012;2023-05-28T03:57:25;20.17;;;9.82;;
23543;SDS011;11950;51.230;4.012;2023-05-28T03:59:52;23.40;;;11.00;;
23543;SDS011;11950;51.230;4.012;2023-05-28T04:02:21;18.08;;;9.63;;
23543;SDS011;11950;51.230;4.012;2023-05-28T04:04:47;25.63;;;10.68;;
23543;SDS011;11950;51.230;4.012;2023-05-28T04:07:14;24.35;;;10.90;;
23543;SDS011;11950;51.230;4.012;2023-05-28T04:09:40;21.20;;;10.57;;
23543;SDS011;11950;51.230;4.012;2023-05-28T04:12:07;22.73;;;10.10;;
23543;SDS011;11950;51.230;4.012;2023-05-28T04:14:34;20.10;;;10.45;;
23543;SDS011;11950;51.230;4.012;2023-05-28T04:17:00;23.92;;;9.48;;
23543;SDS011;11950;51.230;4.012;2023-05-28T04:19:28;25.85;;;10.65;;
23543;SDS011;11950;51.230;4.012;2023-05-28T04:21:55;22.42;;;10.82;;
23543;SDS011;11950;51.230;4.012;2023-05-28T04:24:22;20.90;;;9.40;;
23543;SDS011;11950;51.230;4.012;2023-05-28T04:26:48;25.10;;;10.00;;
23543;SDS011;11950;51.230;4.012;2023-05-28T04:29:14;21.92;;;9.48;;
23543;SDS011;11950;51.230;4.012;2023-05-28T04:31:42;19.17;;;10.40;;
23543;SDS011;11950;51.230;4.012;2023-05-28T04:34:10;19.08;;;10.43;;
23543;SDS011;11950;51.230;4.012;2023-05-28T04:36:37;20.73;;;10.70;;
23543;SDS011;11950;51.230;4.012;2023-05-28T04:39:04;19.95;;;10.52;;
23543;SDS011;11950;51.230;4.012;2023-05-28T04:41:30;26.10;;;10.18;;
23543;SDS011;11950;51.230;4.012;2023-05-28T04:43:57;21.67;;;10.48;;
23543;SDS011;11950;51.230;4.012;2023-05-28T04:46:24;21.73;;;9.55;;
23543;SDS011;11950;51.230;4.012;2023-05-28T04:48:51;20.00;;;9.48;;
23543;SDS011;11950;51.230;4.012;2023-05-28T04:51:18;21.52;;;10.43;;
23543;SDS011;11950;51.230;4.012;2023-05-28T04:53:46;21.60;;;9.70;;
23543;SDS011;11950;51.230;4.012;2023-05-28T04:56:13;22.30;;;9.82;;
23543;SDS011;11950;51.230;4.012;2023-05-28T04:58:40;21.42;;;10.40;;
23543;SDS011;11950;51.230;4.012;2023-05-28T05:01:07;23.30;;;10.00;;
23543;SDS011;11950;51.230;4.012;2023-05-28T05:03:35;21.90;;;8.85;;
23543;SDS011;11950;51.230;4.012;2023-05-28T05:06:03;22.55;;;10.10;;
23543;SDS011;11950;51.230;4.012;2023-05-28T05:08:30;25.35;;;10.80;;
23543;SDS011;11950;51.230;4.012;2023-05-28T05:10:57;21.83;;;9.75;;
23543;SDS011;11950;51.230;4.012;2023-05-28T05:13:23;19.55;;;9.85;;
23543;SDS011;11950;51.230;4.012;2023-05-28T05:15:49;23.85;;;10.13;;
23543;SDS011;11950;51.230;4.012;2023-05-28T05:18:16;20.63;;;9.52;;
23543;SDS011;11950;51.230;4.012;2023-05-28T05:20:43;20.77;;;9.23;;
23543;SDS011;11950;51.230;4.012;2023-05-28T05:23:09;24.50;;;10.45;;
23543;SDS011;11950;51.230;4.012;2023-05-28T05:25:35;23.05;;;9.57;;
23543;SDS011;11950;51.230;4.012;2023-05-28T05:28:01;18.92;;;8.70;;
23543;SDS011;11950;51.230;4.012;2023-05-28T05:30:30;20.75;;;9.63;;
23543;SDS011;11950;51.230;4.012;2023-05-28T05:32:57;22.90;;;10.07;;
23543;SDS011;11950;51.230;4.012;2023-05-28T05:35:26;24.13;;;9.40;;
23543;SDS011;11950;51.230;4.012;2023-05-28T05:38:12;20.50;;;8.95;;
23543;SDS011;11950;51.230;4.012;2023-05-28T05:40:56;23.90;;;8.82;;
23543;SDS011;11950;51.230;4.012;2023-05-28T05:43:58;21.92;;;9.80;;
23543;SDS011;11950;51.230;4.012;2023-05-28T05:46:24;20.55;;;9.27;;
23543;SDS011;11950;51.230;4.012;2023-05-28T05:48:51;23.48;;;10.20;;
23543;SDS011;11950;51.230;4.012;2023-05-28T05:51:18;21.10;;;9.60;;
23543;SDS011;11950;51.230;4.012;2023-05-28T05:53:44;21.23;;;8.82;;
23543;SDS011;11950;51.230;4.012;2023-05-28T05:56:11;24.92;;;10.38;;
23543;SDS011;11950;51.230;4.012;2023-05-28T05:58:38;19.10;;;9.45;;
23543;SDS011;11950;51.230;4.012;2023-05-28T06:01:05;23.23;;;10.32;;
23543;SDS011;11950;51.230;4.012;2023-05-28T06:03:32;21.48;;;9.43;;
23543;SDS011;11950;51.230;4.012;2023-05-28T06:06:04;21.95;;;10.30;;
23543;SDS011;11950;51.230;4.012;2023-05-28T06:09:04;20.42;;;9.90;;
23543;SDS011;11950;51.230;4.012;2023-05-28T06:11:50;24.88;;;9.98;;
23543;SDS011;11950;51.230;4.012;2023-05-28T06:14:16;23.13;;;10.15;;
23543;SDS011;11950;51.230;4.012;2023-05-28T06:16:43;23.80;;;9.98;;
23543;SDS011;11950;51.230;4.012;2023-05-28T06:19:09;24.58;;;9.77;;
23543;SDS011;11950;51.230;4.012;2023-05-28T06:21:35;24.63;;;9.75;;
23543;SDS011;11950;51.230;4.012;2023-05-28T06:24:03;21.42;;;9.93;;
23543;SDS011;11950;51.230;4.012;2023-05-28T06:26:30;24.55;;;10.23;;
23543;SDS011;11950;51.230;4.012;2023-05-28T06:28:56;16.08;;;8.63;;
23543;SDS011;11950;51.230;4.012;2023-05-28T06:31:22;21.10;;;9.02;;
23543;SDS011;11950;51.230;4.012;2023-05-28T06:33:49;21.48;;;8.85;;
23543;SDS011;11950;51.230;4.012;2023-05-28T06:36:15;20.60;;;9.40;;
23543;SDS011;11950;51.230;4.012;2023-05-28T06:38:42;20.13;;;8.85;;
23543;SDS011;11950;51.230;4.012;2023-05-28T06:41:09;21.98;;;8.73;;
23543;SDS011;11950;51.230;4.012;2023-05-28T06:43:43;19.98;;;8.60;;
23543;SDS011;11950;51.230;4.012;2023-05-28T06:46:15;19.73;;;8.45;;
23543;SDS011;11950;51.230;4.012;2023-05-28T06:48:42;23.15;;;8.80;;
23543;SDS011;11950;51.230;4.012;2023-05-28T06:51:09;18.02;;;8.27;;
23543;SDS011;11950;51.230;4.012;2023-05-28T06:53:36;26.73;;;8.77;;
23543;SDS011;11950;51.230;4.012;2023-05-28T06:56:03;20.25;;;8.50;;
23543;SDS011;11950;51.230;4.012;2023-05-28T06:58:36;18.50;;;8.55;;
23543;SDS011;11950;51.230;4.012;2023-05-28T07:01:22;14.68;;;7.60;;
23543;SDS011;11950;51.230;4.012;2023-05-28T07:04:12;20.90;;;8.05;;
23543;SDS011;11950;51.230;4.012;2023-05-28T07:06:44;20.50;;;8.68;;
23543;SDS011;11950;51.230;4.012;2023-05-28T07:09:18;15.32;;;7.75;;
23543;SDS011;11950;51.230;4.012;2023-05-28T07:11:45;18.95;;;8.38;;
23543;SDS011;11950;51.230;4.012;2023-05-28T07:14:11;21.85;;;8.20;;
23543;SDS011;11950;51.230;4.012;2023-05-28T07:16:37;20.17;;;7.95;;
23543;SDS011;11950;51.230;4.012;2023-05-28T07:19:04;18.55;;;8.07;;
23543;SDS011;11950;51.230;4.012;2023-05-28T07:21:31;18.48;;;7.75;;
23543;SDS011;11950;51.230;4.012;2023-05-28T07:23:58;17.33;;;7.57;;
23543;SDS011;11950;51.230;4.012;2023-05-28T07:26:27;21.33;;;7.63;;
23543;SDS011;11950;51.230;4.012;2023-05-28T07:28:53;13.77;;;7.30;;
23543;SDS011;11950;51.230;4.012;2023-05-28T07:31:20;17.63;;;7.32;;
23543;SDS011;11950;51.230;4.012;2023-05-28T07:33:46;17.13;;;6.63;;
23543;SDS011;11950;51.230;4.012;2023-05-28T07:36:14;18.95;;;7.78;;
23543;SDS011;11950;51.230;4.012;2023-05-28T07:38:42;16.85;;;7.05;;
23543;SDS011;11950;51.230;4.012;2023-05-28T07:41:08;17.75;;;7.07;;
23543;SDS011;11950;51.230;4.012;2023-05-28T07:43:45;16.33;;;7.90;;
23543;SDS011;11950;51.230;4.012;2023-05-28T07:46:23;15.55;;;7.10;;
23543;SDS011;11950;51.230;4.012;2023-05-28T07:48:54;15.40;;;6.88;;
23543;SDS011;11950;51.230;4.012;2023-05-28T07:51:25;12.85;;;6.40;;
23543;SDS011;11950;51.230;4.012;2023-05-28T07:54:03;16.95;;;6.80;;
23543;SDS011;11950;51.230;4.012;2023-05-28T07:56:30;15.15;;;6.57;;
23543;SDS011;11950;51.230;4.012;2023-05-28T07:58:57;16.10;;;6.57;;
23543;SDS011;11950;51.230;4.012;2023-05-28T08:01:24;17.15;;;6.70;;
23543;SDS011;11950;51.230;4.012;2023-05-28T08:03:50;12.40;;;6.43;;
23543;SDS011;11950;51.230;4.012;2023-05-28T08:06:22;15.50;;;6.07;;
23543;SDS011;11950;51.230;4.012;2023-05-28T08:08:49;12.20;;;5.57;;
23543;SDS011;11950;51.230;4.012;2023-05-28T08:11:16;12.38;;;5.95;;
23543;SDS011;11950;51.230;4.012;2023-05-28T08:13:42;13.85;;;6.28;;
23543;SDS011;11950;51.230;4.012;2023-05-28T08:16:10;14.40;;;5.88;;
23543;SDS011;11950;51.230;4.012;2023-05-28T08:18:59;13.30;;;5.25;;
23543;SDS011;11950;51.230;4.012;2023-05-28T08:21:27;12.48;;;5.72;;
23543;SDS011;11950;51.230;4.012;2023-05-28T08:23:56;13.85;;;6.20;;
23543;SDS011;11950;51.230;4.012;2023-05-28T08:26:23;11.45;;;4.97;;
23543;SDS011;11950;51.230;4.012;2023-05-28T08:28:49;11.75;;;4.45;;
23543;SDS011;11950;51.230;4.012;2023-05-28T08:31:16;11.05;;;4.72;;
23543;SDS011;11950;51.230;4.012;2023-05-28T08:33:58;15.98;;;5.57;;
23543;SDS011;11950;51.230;4.012;2023-05-28T08:36:25;18.52;;;5.75;;
23543;SDS011;11950;51.230;4.012;2023-05-28T08:38:54;15.18;;;4.72;;
23543;SDS011;11950;51.230;4.012;2023-05-28T08:41:21;11.43;;;4.82;;
23543;SDS011;11950;51.230;4.012;2023-05-28T08:43:49;12.25;;;4.13;;
23543;SDS011;11950;51.230;4.012;2023-05-28T08:46:15;10.73;;;4.30;;
23543;SDS011;11950;51.230;4.012;2023-05-28T08:49:02;7.85;;;3.63;;
23543;SDS011;11950;51.230;4.012;2023-05-28T08:51:30;9.20;;;4.10;;
23543;SDS011;11950;51.230;4.012;2023-05-28T08:53:59;10.80;;;4.28;;
23543;SDS011;11950;51.230;4.012;2023-05-28T08:56:28;11.40;;;5.07;;
23543;SDS011;11950;51.230;4.012;2023-05-28T08:58:55;11.18;;;4.88;;
23543;SDS011;11950;51.230;4.012;2023-05-28T09:01:22;13.90;;;4.57;;
23543;SDS011;11950;51.230;4.012;2023-05-28T09:04:06;13.65;;;5.00;;
23543;SDS011;11950;51.230;4.012;2023-05-28T09:06:38;14.02;;;4.55;;
23543;SDS011;11950;51.230;4.012;2023-05-28T09:09:06;13.45;;;4.57;;
23543;SDS011;11950;51.230;4.012;2023-05-28T09:11:47;15.50;;;5.40;;
23543;SDS011;11950;51.230;4.012;2023-05-28T09:14:13;11.75;;;4.95;;
23543;SDS011;11950;51.230;4.012;2023-05-28T09:16:42;10.05;;;4.85;;
23543;SDS011;11950;51.230;4.012;2023-05-28T09:19:15;12.68;;;5.57;;
23543;SDS011;11950;51.230;4.012;2023-05-28T09:21:55;11.50;;;5.45;;
23543;SDS011;11950;51.230;4.012;2023-05-28T09:24:43;14.47;;;5.80;;
23543;SDS011;11950;51.230;4.012;2023-05-28T09:27:37;10.00;;;4.22;;
23543;SDS011;11950;51.230;4.012;2023-05-28T09:30:04;11.82;;;4.40;;
23543;SDS011;11950;51.230;4.012;2023-05-28T09:32:33;9.50;;;4.43;;
23543;SDS011;11950;51.230;4.012;2023-05-28T09:35:06;9.77;;;3.85;;
23543;SDS011;11950;51.230;4.012;2023-05-28T09:37:36;11.95;;;4.00;;
23543;SDS011;11950;51.230;4.012;2023-05-28T09:40:03;9.05;;;4.05;;
23543;SDS011;11950;51.230;4.012;2023-05-28T09:42:37;7.47;;;3.15;;
23543;SDS011;11950;51.230;4.012;2023-05-28T09:45:08;8.32;;;3.72;;
23543;SDS011;11950;51.230;4.012;2023-05-28T09:47:44;11.75;;;4.10;;
23543;SDS011;11950;51.230;4.012;2023-05-28T09:50:11;10.63;;;3.28;;
23543;SDS011;11950;51.230;4.012;2023-05-28T09:52:37;6.57;;;2.95;;
23543;SDS011;11950;51.230;4.012;2023-05-28T09:55:07;8.10;;;3.00;;
23543;SDS011;11950;51.230;4.012;2023-05-28T09:57:35;7.38;;;3.03;;
23543;SDS011;11950;51.230;4.012;2023-05-28T10:00:06;8.30;;;3.20;;
23543;SDS011;11950;51.230;4.012;2023-05-28T10:02:56;7.85;;;3.30;;
23543;SDS011;11950;51.230;4.012;2023-05-28T10:05:25;7.68;;;3.10;;
23543;SDS011;11950;51.230;4.012;2023-05-28T10:07:56;9.07;;;3.47;;
23543;SDS011;11950;51.230;4.012;2023-05-28T10:10:25;9.48;;;3.28;;
23543;SDS011;11950;51.230;4.012;2023-05-28T10:12:54;7.50;;;2.90;;
23543;SDS011;11950;51.230;4.012;2023-05-28T10:15:22;5.63;;;2.63;;
23543;SDS011;11950;51.230;4.012;2023-05-28T10:17:49;7.40;;;3.20;;
23543;SDS011;11950;51.230;4.012;2023-05-28T10:20:18;9.60;;;2.95;;
23543;SDS011;11950;51.230;4.012;2023-05-28T10:22:45;9.30;;;3.33;;
23543;SDS011;11950;51.230;4.012;2023-05-28T10:25:11;7.80;;;3.35;;
23543;SDS011;11950;51.230;4.012;2023-05-28T10:27:43;8.00;;;2.80;;
23543;SDS011;11950;51.230;4.012;2023-05-28T10:30:10;7.95;;;2.97;;
23543;SDS011;11950;51.230;4.012;2023-05-28T10:32:41;8.23;;;3.05;;
23543;SDS011;11950;51.230;4.012;2023-05-28T10:35:11;8.93;;;2.50;;
23543;SDS011;11950;51.230;4.012;2023-05-28T10:37:37;5.90;;;2.88;;
23543;SDS011;11950;51.230;4.012;2023-05-28T10:40:12;6.07;;;3.38;;
23543;SDS011;11950;51.230;4.012;2023-05-28T10:42:50;8.45;;;3.30;;
23543;SDS011;11950;51.230;4.012;2023-05-28T10:45:16;8.15;;;3.88;;
23543;SDS011;11950;51.230;4.012;2023-05-28T10:47:50;8.90;;;2.78;;
23543;SDS011;11950;51.230;4.012;2023-05-28T10:50:18;6.95;;;3.75;;
23543;SDS011;11950;51.230;4.012;2023-05-28T10:55:49;7.93;;;2.90;;
23543;SDS011;11950;51.230;4.012;2023-05-28T10:58:36;7.60;;;2.92;;
23543;SDS011;11950;51.230;4.012;2023-05-28T11:01:04;7.18;;;3.72;;
23543;SDS011;11950;51.230;4.012;2023-05-28T11:03:37;8.90;;;3.38;;
23543;SDS011;11950;51.230;4.012;2023-05-28T11:06:11;5.57;;;2.60;;
23543;SDS011;11950;51.230;4.012;2023-05-28T11:08:41;10.95;;;3.47;;
23543;SDS011;11950;51.230;4.012;2023-05-28T11:11:10;6.55;;;2.90;;
23543;SDS011;11950;51.230;4.012;2023-05-28T11:13:38;9.82;;;3.67;;
23543;SDS011;11950;51.230;4.012;2023-05-28T11:16:11;8.90;;;3.53;;
23543;SDS011;11950;51.230;4.012;2023-05-28T11:18:38;12.27;;;3.22;;
23543;SDS011;11950;51.230;4.012;2023-05-28T11:23:33;8.27;;;3.35;;
23543;SDS011;11950;51.230;4.012;2023-05-28T11:26:03;8.57;;;3.30;;
23543;SDS011;11950;51.230;4.012;2023-05-28T11:28:31;11.77;;;3.70;;
23543;SDS011;11950;51.230;4.012;2023-05-28T11:30:58;7.40;;;2.95;;
23543;SDS011;11950;51.230;4.012;2023-05-28T11:33:28;8.05;;;3.28;;
23543;SDS011;11950;51.230;4.012;2023-05-28T11:36:00;10.32;;;3.28;;
23543;SDS011;11950;51.230;4.012;2023-05-28T11:38:27;8.13;;;3.83;;
23543;SDS011;11950;51.230;4.012;2023-05-28T11:40:57;9.32;;;3.33;;
23543;SDS011;11950;51.230;4.012;2023-05-28T11:43:25;8.88;;;3.70;;
23543;SDS011;11950;51.230;4.012;2023-05-28T11:45:54;10.23;;;4.03;;
23543;SDS011;11950;51.230;4.012;2023-05-28T11:48:25;9.95;;;3.50;;
23543;SDS011;11950;51.230;4.012;2023-05-28T11:50:59;9.25;;;3.17;;
23543;SDS011;11950;51.230;4.012;2023-05-28T11:53:39;7.63;;;3.67;;
23543;SDS011;11950;51.230;4.012;2023-05-28T11:56:10;16.63;;;3.80;;
23543;SDS011;11950;51.230;4.012;2023-05-28T11:58:37;7.95;;;3.42;;
23543;SDS011;11950;51.230;4.012;2023-05-28T12:01:06;7.50;;;3.53;;
23543;SDS011;11950;51.230;4.012;2023-05-28T12:03:33;10.32;;;3.20;;
23543;SDS011;11950;51.230;4.012;2023-05-28T12:05:59;7.07;;;2.97;;
23543;SDS011;11950;51.230;4.012;2023-05-28T12:08:26;8.48;;;2.95;;
23543;SDS011;11950;51.230;4.012;2023-05-28T12:10:58;6.47;;;3.08;;
23543;SDS011;11950;51.230;4.012;2023-05-28T12:13:32;8.48;;;3.25;;
23543;SDS011;11950;51.230;4.012;2023-05-28T12:16:09;5.45;;;2.92;;
23543;SDS011;11950;51.230;4.012;2023-05-28T12:18:39;7.93;;;2.95;;
23543;SDS011;11950;51.230;4.012;2023-05-28T12:21:13;9.05;;;3.53;;
23543;SDS011;11950;51.230;4.012;2023-05-28T12:23:44;6.72;;;3.42;;
23543;SDS011;11950;51.230;4.012;2023-05-28T12:26:11;11.30;;;4.38;;
23543;SDS011;11950;51.230;4.012;2023-05-28T12:28:39;6.95;;;3.05;;
23543;SDS011;11950;51.230;4.012;2023-05-28T12:31:06;11.85;;;3.17;;
23543;SDS011;11950;51.230;4.012;2023-05-28T12:33:34;7.45;;;3.55;;
23543;SDS011;11950;51.230;4.012;2023-05-28T12:36:00;7.65;;;3.20;;
23543;SDS011;11950;51.230;4.012;2023-05-28T12:38:26;6.68;;;3.15;;
23543;SDS011;11950;51.230;4.012;2023-05-28T12:40:53;6.53;;;2.97;;
23543;SDS011;11950;51.230;4.012;2023-05-28T12:43:19;8.73;;;3.42;;
23543;SDS011;11950;51.230;4.012;2023-05-28T12:45:46;9.48;;;3.25;;
23543;SDS011;11950;51.230;4.012;2023-05-28T12:48:12;5.82;;;3.10;;
23543;SDS011;11950;51.230;4.012;2023-05-28T12:50:38;11.45;;;3.35;;
23543;SDS011;11950;51.230;4.012;2023-05-28T12:53:04;4.43;;;2.92;;
23543;SDS011;11950;51.230;4.012;2023-05-28T12:55:34;7.00;;;3.05;;
23543;SDS011;11950;51.230;4.012;2023-05-28T12:58:00;7.13;;;3.33;;
23543;SDS011;11950;51.230;4.012;2023-05-28T13:00:26;7.88;;;3.40;;
23543;SDS011;11950;51.230;4.012;2023-05-28T13:02:52;7.60;;;3.33;;
23543;SDS011;11950;51.230;4.012;2023-05-28T13:05:19;12.10;;;3.85;;
23543;SDS011;11950;51.230;4.012;2023-05-28T13:07:45;6.47;;;3.17;;
23543;SDS011;11950;51.230;4.012;2023-05-28T13:10:11;8.77;;;3.50;;
23543;SDS011;11950;51.230;4.012;2023-05-28T13:12:38;9.43;;;3.42;;
23543;SDS011;11950;51.230;4.012;2023-05-28T13:15:05;7.97;;;3.47;;
23543;SDS011;11950;51.230;4.012;2023-05-28T13:17:32;11.20;;;3.88;;
23543;SDS011;11950;51.230;4.012;2023-05-28T13:19:58;12.52;;;4.70;;
23543;SDS011;11950;51.230;4.012;2023-05-28T13:22:24;9.55;;;3.97;;
23543;SDS011;11950;51.230;4.012;2023-05-28T13:24:51;8.40;;;4.32;;
23543;SDS011;11950;51.230;4.012;2023-05-28T13:27:17;7.07;;;3.72;;
23543;SDS011;11950;51.230;4.012;2023-05-28T13:29:43;13.73;;;4.15;;
23543;SDS011;11950;51.230;4.012;2023-05-28T13:32:10;9.55;;;4.30;;
23543;SDS011;11950;51.230;4.012;2023-05-28T13:34:37;9.70;;;3.97;;
23543;SDS011;11950;51.230;4.012;2023-05-28T13:37:05;10.48;;;4.30;;
23543;SDS011;11950;51.230;4.012;2023-05-28T13:39:31;7.78;;;4.22;;
23543;SDS011;11950;51.230;4.012;2023-05-28T13:41:58;10.95;;;4.72;;
23543;SDS011;11950;51.230;4.012;2023-05-28T13:44:24;6.97;;;3.85;;
23543;SDS011;11950;51.230;4.012;2023-05-28T13:46:51;10.25;;;3.80;;
23543;SDS011;11950;51.230;4.012;2023-05-28T13:49:17;9.27;;;4.20;;
23543;SDS011;11950;51.230;4.012;2023-05-28T13:51:44;7.90;;;4.20;;
23543;SDS011;11950;51.230;4.012;2023-05-28T13:54:10;9.65;;;3.85;;
23543;SDS011;11950;51.230;4.012;2023-05-28T13:56:36;7.45;;;3.58;;
23543;SDS011;11950;51.230;4.012;2023-05-28T13:59:03;8.77;;;3.67;;
23543;SDS011;11950;51.230;4.012;2023-05-28T14:01:29;10.32;;;4.40;;
23543;SDS011;11950;51.230;4.012;2023-05-28T14:03:55;9.57;;;4.28;;
23543;SDS011;11950;51.230;4.012;2023-05-28T14:06:21;8.10;;;3.65;;
23543;SDS011;11950;51.230;4.012;2023-05-28T14:08:48;7.35;;;4.07;;
23543;SDS011;11950;51.230;4.012;2023-05-28T14:11:14;13.15;;;3.85;;
23543;SDS011;11950;51.230;4.012;2023-05-28T14:13:40;14.60;;;4.50;;
23543;SDS011;11950;51.230;4.012;2023-05-28T14:16:06;11.45;;;4.13;;
23543;SDS011;11950;51.230;4.012;2023-05-28T14:18:33;5.40;;;3.72;;
23543;SDS011;11950;51.230;4.012;2023-05-28T14:20:59;9.77;;;4.35;;
23543;SDS011;11950;51.230;4.012;2023-05-28T14:23:27;9.07;;;4.07;;
23543;SDS011;11950;51.230;4.012;2023-05-28T14:25:55;11.40;;;4.28;;
23543;SDS011;11950;51.230;4.012;2023-05-28T14:28:21;9.75;;;4.07;;
23543;SDS011;11950;51.230;4.012;2023-05-28T14:30:48;10.20;;;6.25;;
23543;SDS011;11950;51.230;4.012;2023-05-28T14:33:14;13.48;;;5.15;;
23543;SDS011;11950;51.230;4.012;2023-05-28T14:35:40;9.55;;;3.90;;
23543;SDS011;11950;51.230;4.012;2023-05-28T14:38:06;8.60;;;4.13;;
23543;SDS011;11950;51.230;4.012;2023-05-28T14:40:33;9.88;;;4.40;;
23543;SDS011;11950;51.230;4.012;2023-05-28T14:42:59;9.15;;;3.67;;
23543;SDS011;11950;51.230;4.012;2023-05-28T14:45:25;7.82;;;4.10;;
23543;SDS011;11950;51.230;4.012;2023-05-28T14:47:52;12.98;;;5.30;;
23543;SDS011;11950;51.230;4.012;2023-05-28T14:50:19;10.82;;;4.43;;